createdAt,value
2018-02-10T00:00:02.497Z,94.13
2018-02-10T00:01:02.484Z,94.23
2018-02-10T00:02:02.474Z,94.23
2018-02-10T00:03:02.461Z,94.98
2018-02-10T00:04:02.451Z,94.42
2018-02-10T00:05:02.438Z,95.17
2018-02-10T00:06:02.427Z,95.36
2018-02-10T00:07:02.420Z,95.36
2018-02-10T00:08:02.412Z,95.07
2018-02-10T00:09:02.397Z,96.02
2018-02-10T00:10:02.387Z,95.93
2018-02-10T00:11:02.375Z,95.64
2018-02-10T00:12:02.363Z,95.93
2018-02-10T00:13:02.351Z,96.31
2018-02-10T00:14:02.340Z,95.74
2018-02-10T00:15:02.326Z,96.31
2018-02-10T00:16:02.317Z,96.97
2018-02-10T00:17:02.303Z,96.69
2018-02-10T00:18:02.290Z,96.69
2018-02-10T00:19:02.280Z,97.16
2018-02-10T00:20:02.268Z,97.16
2018-02-10T00:21:02.255Z,97.73
2018-02-10T00:22:02.244Z,97.35
2018-02-10T00:23:02.236Z,98.49
2018-02-10T00:24:02.225Z,98.58
2018-02-10T00:25:02.214Z,99.15
2018-02-10T00:26:02.202Z,98.96
2018-02-10T00:27:02.192Z,99.62
2018-02-10T00:28:02.180Z,99.52
2018-02-10T00:29:02.166Z,99.52
2018-02-10T00:30:02.156Z,99.33
2018-02-10T00:31:02.142Z,99.99
2018-02-10T00:32:02.129Z,99.99
2018-02-10T00:33:02.117Z,99.99
2018-02-10T00:34:02.106Z,99.99
2018-02-10T00:35:02.095Z,99.99
2018-02-10T00:36:02.085Z,99.99
2018-02-10T00:37:02.071Z,99.99
2018-02-10T00:38:02.060Z,99.99
2018-02-10T00:39:02.053Z,99.99
2018-02-10T00:40:02.045Z,99.99
2018-02-10T00:41:02.029Z,99.99
2018-02-10T00:42:02.018Z,99.99
2018-02-10T00:43:02.006Z,99.99
2018-02-10T00:44:01.995Z,99.99
2018-02-10T00:45:01.983Z,99.99
2018-02-10T00:46:01.971Z,99.99
2018-02-10T00:47:01.956Z,99.99
2018-02-10T00:48:01.945Z,99.99
2018-02-10T00:49:01.932Z,99.99
2018-02-10T00:50:01.921Z,99.99
2018-02-10T00:51:01.915Z,99.99
2018-02-10T00:52:01.899Z,99.99
2018-02-10T00:53:01.888Z,99.99
2018-02-10T00:54:01.875Z,99.99
2018-02-10T00:55:01.868Z,99.99
2018-02-10T00:56:01.856Z,99.99
2018-02-10T00:57:01.844Z,99.99
2018-02-10T00:58:01.833Z,99.99
2018-02-10T00:59:01.821Z,99.99
2018-02-10T01:00:01.811Z,99.99
2018-02-10T01:01:01.798Z,99.99
2018-02-10T01:02:01.787Z,99.99
2018-02-10T01:03:01.771Z,99.99
2018-02-10T01:04:01.759Z,99.99
2018-02-10T01:05:01.748Z,99.99
2018-02-10T01:06:01.736Z,99.99
2018-02-10T01:07:01.724Z,99.99
2018-02-10T01:08:01.714Z,99.99
2018-02-10T01:09:01.701Z,99.99
2018-02-10T01:10:01.692Z,99.99
2018-02-10T01:11:01.683Z,99.99
2018-02-10T01:12:01.673Z,99.99
2018-02-10T01:13:01.659Z,99.99
2018-02-10T01:14:01.648Z,99.99
2018-02-10T01:15:01.637Z,99.99
2018-02-10T01:16:01.624Z,99.99
2018-02-10T01:17:01.614Z,99.99
2018-02-10T01:18:01.603Z,99.99
2018-02-10T01:19:01.587Z,99.99
2018-02-10T01:20:01.575Z,99.99
2018-02-10T01:21:01.562Z,99.99
2018-02-10T01:22:01.551Z,99.99
2018-02-10T01:23:01.540Z,99.99
2018-02-10T01:24:01.529Z,99.99
2018-02-10T01:25:01.518Z,99.99
2018-02-10T01:26:01.505Z,99.99
2018-02-10T01:27:01.498Z,99.99
2018-02-10T01:28:01.487Z,99.99
2018-02-10T01:29:01.475Z,99.99
2018-02-10T01:30:01.464Z,99.99
2018-02-10T01:31:01.452Z,99.99
2018-02-10T01:32:01.441Z,99.99
2018-02-10T01:33:01.429Z,99.99
2018-02-10T01:34:01.417Z,99.99
2018-02-10T01:35:01.402Z,99.99
2018-02-10T01:36:01.396Z,99.99
2018-02-10T01:37:01.379Z,99.99
2018-02-10T01:38:01.367Z,99.99
2018-02-10T01:39:01.358Z,99.99
2018-02-10T01:40:01.345Z,99.99
2018-02-10T01:41:01.333Z,99.99
2018-02-10T01:42:01.321Z,99.99
2018-02-10T01:43:01.315Z,99.99
2018-02-10T01:44:01.303Z,99.99
2018-02-10T01:45:01.291Z,99.99
2018-02-10T01:46:01.279Z,99.99
2018-02-10T01:47:01.268Z,99.99
2018-02-10T01:48:01.257Z,99.99
2018-02-10T01:49:01.245Z,99.99
2018-02-10T01:50:01.234Z,99.99
2018-02-10T01:51:01.220Z,99.99
2018-02-10T01:52:01.207Z,99.99
2018-02-10T01:53:01.194Z,99.99
2018-02-10T01:54:01.183Z,99.99
2018-02-10T01:55:01.176Z,99.99
2018-02-10T01:56:01.164Z,99.99
2018-02-10T01:57:01.152Z,99.99
2018-02-10T01:58:01.140Z,99.99
2018-02-10T01:59:01.125Z,99.99
2018-02-10T02:00:01.118Z,99.99
2018-02-10T02:01:01.101Z,99.99
2018-02-10T02:02:01.090Z,99.99
2018-02-10T02:03:01.077Z,99.99
2018-02-10T02:04:01.066Z,99.99
2018-02-10T02:05:01.053Z,99.99
2018-02-10T02:06:01.042Z,99.99
2018-02-10T02:07:01.035Z,99.99
2018-02-10T02:08:01.022Z,99.99
2018-02-10T02:09:01.010Z,99.99
2018-02-10T02:10:01.000Z,99.99
2018-02-10T02:11:00.988Z,99.99
2018-02-10T02:12:00.977Z,99.99
2018-02-10T02:13:01.014Z,99.99
2018-02-10T02:14:00.953Z,99.99
2018-02-10T02:15:00.938Z,99.99
2018-02-10T02:16:00.926Z,99.99
2018-02-10T02:17:00.914Z,99.99
2018-02-10T02:18:00.901Z,99.99
2018-02-10T02:19:00.891Z,99.99
2018-02-10T02:20:00.879Z,99.99
2018-02-10T02:21:00.865Z,99.99
2018-02-10T02:22:00.855Z,99.99
2018-02-10T02:23:00.848Z,99.99
2018-02-10T02:24:00.837Z,99.99
2018-02-10T02:25:00.824Z,99.99
2018-02-10T02:26:00.813Z,99.99
2018-02-10T02:27:00.801Z,99.99
2018-02-10T02:28:00.790Z,99.99
2018-02-10T02:29:00.778Z,99.99
2018-02-10T02:30:00.766Z,99.99
2018-02-10T02:31:00.751Z,99.99
2018-02-10T02:32:00.740Z,99.99
2018-02-10T02:33:00.727Z,99.99
2018-02-10T02:34:00.716Z,99.99
2018-02-10T02:35:00.705Z,99.99
2018-02-10T02:36:00.693Z,99.99
2018-02-10T02:37:00.680Z,99.99
2018-02-10T02:38:00.670Z,99.99
2018-02-10T02:39:00.663Z,99.99
2018-02-10T02:40:00.651Z,99.99
2018-02-10T02:41:00.640Z,99.99
2018-02-10T02:42:00.628Z,99.99
2018-02-10T02:43:00.618Z,99.99
2018-02-10T02:44:00.606Z,99.99
2018-02-10T02:45:00.594Z,99.99
2018-02-10T02:46:00.585Z,99.99
2018-02-10T02:47:00.567Z,99.99
2018-02-10T02:48:00.556Z,99.99
2018-02-10T02:49:00.545Z,99.99
2018-02-10T02:50:00.534Z,99.99
2018-02-10T02:51:00.522Z,99.99
2018-02-10T02:52:00.514Z,99.99
2018-02-10T02:53:00.498Z,99.99
2018-02-10T02:54:00.488Z,99.99
2018-02-10T02:55:00.480Z,99.99
2018-02-10T02:56:00.470Z,99.99
2018-02-10T02:57:00.458Z,99.99
2018-02-10T02:58:00.446Z,99.99
2018-02-10T02:59:00.431Z,99.99
2018-02-10T03:00:00.419Z,99.99
2018-02-10T03:01:00.407Z,99.99
2018-02-10T03:02:00.397Z,99.99
2018-02-10T03:03:00.389Z,99.99
2018-02-10T03:04:00.378Z,99.99
2018-02-10T03:05:00.366Z,99.99
2018-02-10T03:06:00.357Z,99.99
2018-02-10T03:07:00.345Z,99.99
2018-02-10T03:08:00.333Z,99.99
2018-02-10T03:09:00.320Z,99.99
2018-02-10T03:10:00.309Z,99.99
2018-02-10T03:11:00.294Z,99.99
2018-02-10T03:12:00.283Z,99.99
2018-02-10T03:13:00.270Z,99.99
2018-02-10T03:14:00.259Z,99.99
2018-02-10T03:15:00.248Z,99.99
2018-02-10T03:16:00.237Z,99.99
2018-02-10T03:17:00.225Z,99.99
2018-02-10T03:18:00.214Z,99.99
2018-02-10T03:19:00.207Z,99.99
2018-02-10T03:20:00.196Z,99.99
2018-02-10T03:21:00.183Z,99.99
2018-02-10T03:22:00.172Z,99.99
2018-02-10T03:23:00.161Z,99.99
2018-02-10T03:24:00.151Z,99.99
2018-02-10T03:25:00.137Z,99.99
2018-02-10T03:26:00.127Z,99.99
2018-02-10T03:27:00.113Z,99.99
2018-02-10T03:28:00.101Z,99.99
2018-02-10T03:29:00.089Z,99.99
2018-02-10T03:30:00.104Z,99.99
2018-02-10T03:31:00.067Z,99.99
2018-02-10T03:32:00.059Z,99.99
2018-02-10T03:33:00.046Z,99.99
2018-02-10T03:34:00.039Z,99.99
2018-02-10T03:35:00.032Z,99.99
2018-02-10T03:36:00.026Z,99.99
2018-02-10T03:37:00.006Z,99.99
2018-02-10T03:37:59.992Z,99.99
2018-02-10T03:38:59.980Z,99.99
2018-02-10T03:39:59.970Z,99.99
2018-02-10T03:40:59.958Z,99.99
2018-02-10T03:41:59.947Z,99.99
2018-02-10T03:42:59.932Z,99.99
2018-02-10T03:43:59.921Z,99.99
2018-02-10T03:44:59.909Z,99.99
2018-02-10T03:45:59.897Z,99.99
2018-02-10T03:46:59.887Z,99.99
2018-02-10T03:47:59.882Z,99.99
2018-02-10T03:48:59.864Z,99.99
2018-02-10T03:49:59.853Z,99.99
2018-02-10T03:50:59.848Z,99.99
2018-02-10T03:51:59.836Z,99.99
2018-02-10T03:52:59.825Z,99.99
2018-02-10T03:53:59.813Z,99.99
2018-02-10T03:54:59.803Z,99.99
2018-02-10T03:55:59.791Z,99.99
2018-02-10T03:56:59.780Z,99.99
2018-02-10T03:57:59.770Z,99.99
2018-02-10T03:58:59.755Z,99.99
2018-02-10T03:59:59.744Z,99.99
2018-02-10T04:00:59.732Z,99.99
2018-02-10T04:01:59.721Z,99.99
2018-02-10T04:02:59.715Z,99.99
2018-02-10T04:03:59.703Z,99.99
2018-02-10T04:04:59.692Z,99.99
2018-02-10T04:05:59.680Z,99.99
2018-02-10T04:06:59.666Z,99.99
2018-02-10T04:07:59.656Z,99.99
2018-02-10T04:08:59.645Z,99.99
2018-02-10T04:09:59.633Z,99.99
2018-02-10T04:10:59.622Z,99.99
2018-02-10T04:11:59.633Z,99.99
2018-02-10T04:12:59.599Z,99.99
2018-02-10T04:13:59.589Z,99.99
2018-02-10T04:14:59.582Z,99.99
2018-02-10T04:15:59.572Z,99.99
2018-02-10T04:16:59.560Z,99.99
2018-02-10T04:17:59.549Z,99.99
2018-02-10T04:18:59.538Z,99.99
2018-02-10T04:19:59.528Z,99.99
2018-02-10T04:20:59.515Z,99.99
2018-02-10T04:21:59.505Z,99.99
2018-02-10T04:22:59.490Z,99.99
2018-02-10T04:23:59.483Z,99.99
2018-02-10T04:24:59.468Z,99.99
2018-02-10T04:25:59.457Z,99.99
2018-02-10T04:26:59.446Z,99.99
2018-02-10T04:27:59.436Z,99.99
2018-02-10T04:28:59.426Z,99.99
2018-02-10T04:29:59.415Z,99.99
2018-02-10T04:30:59.407Z,99.99
2018-02-10T04:31:59.397Z,99.99
2018-02-10T04:32:59.385Z,99.99
2018-02-10T04:33:59.375Z,99.99
2018-02-10T04:34:59.363Z,99.99
2018-02-10T04:35:59.353Z,99.99
2018-02-10T04:36:59.342Z,99.99
2018-02-10T04:37:59.332Z,99.99
2018-02-10T04:38:59.316Z,99.99
2018-02-10T04:39:59.304Z,99.99
2018-02-10T04:40:59.292Z,99.99
2018-02-10T04:41:59.282Z,99.99
2018-02-10T04:42:59.271Z,99.99
2018-02-10T04:43:59.261Z,99.99
2018-02-10T04:44:59.249Z,99.99
2018-02-10T04:45:59.239Z,99.99
2018-02-10T04:46:59.232Z,99.99
2018-02-10T04:47:59.221Z,99.99
2018-02-10T04:48:59.209Z,99.99
2018-02-10T04:49:59.199Z,99.99
2018-02-10T04:50:59.188Z,99.99
2018-02-10T04:51:59.177Z,99.99
2018-02-10T04:52:59.170Z,99.99
2018-02-10T04:53:59.154Z,99.99
2018-02-10T04:54:59.139Z,99.99
2018-02-10T04:55:59.129Z,99.99
2018-02-10T04:56:59.117Z,99.99
2018-02-10T04:57:59.106Z,99.99
2018-02-10T04:58:59.095Z,99.99
2018-02-10T04:59:59.088Z,99.99
2018-02-10T05:00:59.073Z,99.99
2018-02-10T05:01:59.062Z,99.99
2018-02-10T05:02:59.055Z,99.99
2018-02-10T05:03:59.045Z,99.99
2018-02-10T05:04:59.033Z,99.99
2018-02-10T05:05:59.022Z,99.99
2018-02-10T05:06:59.012Z,99.99
2018-02-10T05:07:59.001Z,99.99
2018-02-10T05:08:58.990Z,99.99
2018-02-10T05:09:58.979Z,99.99
2018-02-10T05:10:58.964Z,99.99
2018-02-10T05:11:58.952Z,99.99
2018-02-10T05:12:58.942Z,99.99
2018-02-10T05:13:58.932Z,99.99
2018-02-10T05:14:58.919Z,99.99
2018-02-10T05:15:58.909Z,99.99
2018-02-10T05:16:58.897Z,99.99
2018-02-10T05:17:58.887Z,99.99
2018-02-10T05:18:58.880Z,99.99
2018-02-10T05:19:58.870Z,99.99
2018-02-10T05:20:58.858Z,99.99
2018-02-10T05:21:58.847Z,99.99
2018-02-10T05:22:58.836Z,99.99
2018-02-10T05:23:58.826Z,99.99
2018-02-10T05:24:58.815Z,99.99
2018-02-10T05:25:58.805Z,99.99
2018-02-10T05:26:58.789Z,99.99
2018-02-10T05:27:58.778Z,99.99
2018-02-10T05:28:58.767Z,99.99
2018-02-10T05:29:58.756Z,99.99
2018-02-10T05:30:58.744Z,99.99
2018-02-10T05:31:58.735Z,99.99
2018-02-10T05:32:58.723Z,99.99
2018-02-10T05:33:58.712Z,99.99
2018-02-10T05:34:58.705Z,99.99
2018-02-10T05:35:58.696Z,99.99
2018-02-10T05:36:58.684Z,99.99
2018-02-10T05:37:58.673Z,99.99
2018-02-10T05:38:58.663Z,99.99
2018-02-10T05:39:58.652Z,99.99
2018-02-10T05:40:58.647Z,99.99
2018-02-10T05:41:58.630Z,99.99
2018-02-10T05:42:58.614Z,99.99
2018-02-10T05:43:58.604Z,99.99
2018-02-10T05:44:58.593Z,99.99
2018-02-10T05:45:58.582Z,99.99
2018-02-10T05:46:58.571Z,99.99
2018-02-10T05:47:58.561Z,99.99
2018-02-10T05:48:58.549Z,99.99
2018-02-10T05:49:58.538Z,99.99
2018-02-10T05:50:58.532Z,99.99
2018-02-10T05:51:58.527Z,99.99
2018-02-10T05:52:58.510Z,99.99
2018-02-10T05:53:58.499Z,99.99
2018-02-10T05:54:58.489Z,99.99
2018-02-10T05:55:58.478Z,99.99
2018-02-10T05:56:58.466Z,99.99
2018-02-10T05:57:58.455Z,99.99
2018-02-10T05:58:58.441Z,99.99
2018-02-10T05:59:58.430Z,99.99
2018-02-10T06:00:58.419Z,99.99
2018-02-10T06:01:58.408Z,99.99
2018-02-10T06:02:58.397Z,99.99
2018-02-10T06:03:58.387Z,99.99
2018-02-10T06:04:58.377Z,99.99
2018-02-10T06:05:58.365Z,99.99
2018-02-10T06:06:58.359Z,99.99
2018-02-10T06:07:58.348Z,99.99
2018-02-10T06:08:58.335Z,99.99
2018-02-10T06:09:58.326Z,99.99
2018-02-10T06:10:58.311Z,99.99
2018-02-10T06:11:58.300Z,99.99
2018-02-10T06:12:58.289Z,99.99
2018-02-10T06:13:58.278Z,99.99
2018-02-10T06:14:58.271Z,99.99
2018-02-10T06:15:58.262Z,99.99
2018-02-10T06:16:58.250Z,99.99
2018-02-10T06:17:58.239Z,99.99
2018-02-10T06:18:58.228Z,99.99
2018-02-10T06:19:58.217Z,99.99
2018-02-10T06:20:58.205Z,99.99
2018-02-10T06:21:58.195Z,99.99
2018-02-10T06:22:58.180Z,99.99
2018-02-10T06:23:58.169Z,99.99
2018-02-10T06:24:58.156Z,99.99
2018-02-10T06:25:58.147Z,99.99
2018-02-10T06:26:58.136Z,99.99
2018-02-10T06:27:58.124Z,99.99
2018-02-10T06:28:58.113Z,99.99
2018-02-10T06:29:58.103Z,99.99
2018-02-10T06:30:58.096Z,99.99
2018-02-10T06:31:58.086Z,99.99
2018-02-10T06:32:58.074Z,99.99
2018-02-10T06:33:58.110Z,99.99
2018-02-10T06:34:58.052Z,99.99
2018-02-10T06:35:58.041Z,99.99
2018-02-10T06:36:58.030Z,99.99
2018-02-10T06:37:58.018Z,99.99
2018-02-10T06:38:58.004Z,99.99
2018-02-10T06:39:57.993Z,99.99
2018-02-10T06:40:57.980Z,99.99
2018-02-10T06:41:57.970Z,99.99
2018-02-10T06:42:57.960Z,99.99
2018-02-10T06:43:57.948Z,99.99
2018-02-10T06:44:57.936Z,99.99
2018-02-10T06:45:57.926Z,99.99
2018-02-10T06:46:57.920Z,99.99
2018-02-10T06:47:57.909Z,99.99
2018-02-10T06:48:57.898Z,99.99
2018-02-10T06:49:57.886Z,99.99
2018-02-10T06:50:57.914Z,99.99
2018-02-10T06:51:57.865Z,99.99
2018-02-10T06:52:57.852Z,99.99
2018-02-10T06:53:57.842Z,99.99
2018-02-10T06:54:57.828Z,99.99
2018-02-10T06:55:57.817Z,99.99
2018-02-10T06:56:57.805Z,99.99
2018-02-10T06:57:57.794Z,99.99
2018-02-10T06:58:57.784Z,99.99
2018-02-10T06:59:57.775Z,99.99
2018-02-10T07:00:57.760Z,99.99
2018-02-10T07:01:57.751Z,99.99
2018-02-10T07:02:57.744Z,99.99
2018-02-10T07:03:57.732Z,99.99
2018-02-10T07:04:57.721Z,99.99
2018-02-10T07:05:57.710Z,99.99
2018-02-10T07:06:57.700Z,99.99
2018-02-10T07:07:57.689Z,99.99
2018-02-10T07:08:57.678Z,99.99
2018-02-10T07:09:57.667Z,99.99
2018-02-10T07:10:57.652Z,99.99
2018-02-10T07:11:57.641Z,99.99
2018-02-10T07:12:57.629Z,99.99
2018-02-10T07:13:57.619Z,99.99
2018-02-10T07:14:57.613Z,99.99
2018-02-10T07:15:57.602Z,99.99
2018-02-10T07:16:57.590Z,99.99
2018-02-10T07:17:57.579Z,99.99
2018-02-10T07:18:57.564Z,99.99
2018-02-10T07:19:57.554Z,99.99
2018-02-10T07:20:57.544Z,99.99
2018-02-10T07:21:57.537Z,99.99
2018-02-10T07:22:57.520Z,99.99
2018-02-10T07:23:57.510Z,99.99
2018-02-10T07:24:57.498Z,99.99
2018-02-10T07:25:57.488Z,99.99
2018-02-10T07:26:57.482Z,99.99
2018-02-10T07:27:57.471Z,99.99
2018-02-10T07:28:57.459Z,99.99
2018-02-10T07:29:57.449Z,99.99
2018-02-10T07:30:57.438Z,99.99
2018-02-10T07:31:57.427Z,99.99
2018-02-10T07:32:57.415Z,99.99
2018-02-10T07:33:57.410Z,99.99
2018-02-10T07:34:57.390Z,99.99
2018-02-10T07:35:57.380Z,99.99
2018-02-10T07:36:57.367Z,99.99
2018-02-10T07:37:57.357Z,99.99
2018-02-10T07:38:57.347Z,99.99
2018-02-10T07:39:57.336Z,99.99
2018-02-10T07:40:57.325Z,99.99
2018-02-10T07:41:57.314Z,99.99
2018-02-10T07:42:57.308Z,99.99
2018-02-10T07:43:57.299Z,99.99
2018-02-10T07:44:57.286Z,99.99
2018-02-10T07:45:57.275Z,99.99
2018-02-10T07:46:57.264Z,99.99
2018-02-10T07:47:57.253Z,99.99
2018-02-10T07:48:57.241Z,99.99
2018-02-10T07:49:57.231Z,99.99
2018-02-10T07:50:57.221Z,99.99
2018-02-10T07:51:57.205Z,99.99
2018-02-10T07:52:57.218Z,99.99
2018-02-10T07:53:57.183Z,99.99
2018-02-10T07:54:57.171Z,99.99
2018-02-10T07:55:57.165Z,99.99
2018-02-10T07:56:57.150Z,99.99
2018-02-10T07:57:57.139Z,99.99
2018-02-10T07:58:57.134Z,99.99
2018-02-10T07:59:57.126Z,99.99
2018-02-10T08:00:57.110Z,99.99
2018-02-10T08:01:57.117Z,99.99
2018-02-10T08:02:57.089Z,99.99
2018-02-10T08:03:57.077Z,99.99
2018-02-10T08:04:57.066Z,99.99
2018-02-10T08:05:57.056Z,99.99
2018-02-10T08:06:57.043Z,99.99
2018-02-10T08:07:57.031Z,99.99
2018-02-10T08:08:57.019Z,99.99
2018-02-10T08:09:57.008Z,99.99
2018-02-10T08:10:57.000Z,99.99
2018-02-10T08:11:56.986Z,99.99
2018-02-10T08:12:56.975Z,99.99
2018-02-10T08:13:56.963Z,99.99
2018-02-10T08:14:56.957Z,99.99
2018-02-10T08:15:56.952Z,99.99
2018-02-10T08:16:56.936Z,99.99
2018-02-10T08:17:56.928Z,99.99
2018-02-10T08:18:56.912Z,99.99
2018-02-10T08:19:56.934Z,99.99
2018-02-10T08:20:56.886Z,99.99
2018-02-10T08:21:56.876Z,99.99
2018-02-10T08:22:56.869Z,99.99
2018-02-10T08:23:56.859Z,99.99
2018-02-10T08:24:56.847Z,99.99
2018-02-10T08:25:56.836Z,99.99
2018-02-10T08:26:56.826Z,99.99
2018-02-10T08:27:56.814Z,99.99
2018-02-10T08:28:56.804Z,99.99
2018-02-10T08:29:56.791Z,99.99
2018-02-10T08:30:56.777Z,99.99
2018-02-10T08:31:56.767Z,99.99
2018-02-10T08:32:56.754Z,99.99
2018-02-10T08:33:56.743Z,99.99
2018-02-10T08:34:56.733Z,99.99
2018-02-10T08:35:56.722Z,99.99
2018-02-10T08:36:56.710Z,99.99
2018-02-10T08:37:56.700Z,99.99
2018-02-10T08:38:56.696Z,99.99
2018-02-10T08:39:56.682Z,99.99
2018-02-10T08:40:56.682Z,99.99
2018-02-10T08:41:56.664Z,99.99
2018-02-10T08:42:56.650Z,99.99
2018-02-10T08:43:56.638Z,99.99
2018-02-10T08:44:56.626Z,99.99
2018-02-10T08:45:56.615Z,99.99
2018-02-10T08:46:56.601Z,99.99
2018-02-10T08:47:56.589Z,99.99
2018-02-10T08:48:56.579Z,99.99
2018-02-10T08:49:56.567Z,99.99
2018-02-10T08:50:56.559Z,99.99
2018-02-10T08:51:56.546Z,99.99
2018-02-10T08:52:56.534Z,99.99
2018-02-10T08:53:56.524Z,99.99
2018-02-10T08:54:56.517Z,99.99
2018-02-10T08:55:56.507Z,99.99
2018-02-10T08:56:56.495Z,99.99
2018-02-10T08:57:56.484Z,99.99
2018-02-10T08:58:56.474Z,99.99
2018-02-10T08:59:56.462Z,99.99
2018-02-10T09:00:56.451Z,99.99
2018-02-10T09:01:56.440Z,99.99
2018-02-10T09:02:56.427Z,99.99
2018-02-10T09:03:56.417Z,99.99
2018-02-10T09:04:56.404Z,99.99
2018-02-10T09:05:56.392Z,99.99
2018-02-10T09:06:56.383Z,99.99
2018-02-10T09:07:56.372Z,99.99
2018-02-10T09:08:56.360Z,99.99
2018-02-10T09:09:56.392Z,99.99
2018-02-10T09:10:56.343Z,99.99
2018-02-10T09:11:56.332Z,99.99
2018-02-10T09:12:56.321Z,99.99
2018-02-10T09:13:56.310Z,99.99
2018-02-10T09:14:56.299Z,99.99
2018-02-10T09:15:56.289Z,99.99
2018-02-10T09:16:56.278Z,99.99
2018-02-10T09:17:56.267Z,99.99
2018-02-10T09:18:56.252Z,99.99
2018-02-10T09:19:56.241Z,99.99
2018-02-10T09:20:56.229Z,99.99
2018-02-10T09:21:56.219Z,99.99
2018-02-10T09:22:56.213Z,99.99
2018-02-10T09:23:56.202Z,99.99
2018-02-10T09:24:56.190Z,99.99
2018-02-10T09:25:56.225Z,99.99
2018-02-10T09:26:56.165Z,99.99
2018-02-10T09:27:56.155Z,99.99
2018-02-10T09:28:56.143Z,99.99
2018-02-10T09:29:56.132Z,99.99
2018-02-10T09:30:56.122Z,99.99
2018-02-10T09:31:56.111Z,99.99
2018-02-10T09:32:56.100Z,99.99
2018-02-10T09:33:56.090Z,99.99
2018-02-10T09:34:56.083Z,99.99
2018-02-10T09:35:56.073Z,99.99
2018-02-10T09:36:56.061Z,99.99
2018-02-10T09:37:56.051Z,99.99
2018-02-10T09:38:56.041Z,99.99
2018-02-10T09:39:56.076Z,99.99
2018-02-10T09:40:56.018Z,99.99
2018-02-10T09:41:56.012Z,99.99
2018-02-10T09:42:55.999Z,99.99
2018-02-10T09:43:55.984Z,99.99
2018-02-10T09:44:55.971Z,99.99
2018-02-10T09:45:55.961Z,99.99
2018-02-10T09:46:55.950Z,99.99
2018-02-10T09:47:55.941Z,99.99
2018-02-10T09:48:55.929Z,99.99
2018-02-10T09:49:55.918Z,99.99
2018-02-10T09:50:55.912Z,99.99
2018-02-10T09:51:55.902Z,99.99
2018-02-10T09:52:55.890Z,99.99
2018-02-10T09:53:55.882Z,99.99
2018-02-10T09:54:55.870Z,99.99
2018-02-10T09:55:55.859Z,99.99
2018-02-10T09:56:55.849Z,99.99
2018-02-10T09:57:55.838Z,99.99
2018-02-10T09:58:55.823Z,99.99
2018-02-10T09:59:55.813Z,99.99
2018-02-10T10:00:55.801Z,99.99
2018-02-10T10:01:55.791Z,99.99
2018-02-10T10:02:55.781Z,99.99
2018-02-10T10:03:55.770Z,99.99
2018-02-10T10:04:55.759Z,99.99
2018-02-10T10:05:55.754Z,99.99
2018-02-10T10:06:55.742Z,99.99
2018-02-10T10:07:55.733Z,99.99
2018-02-10T10:08:55.721Z,99.99
2018-02-10T10:09:55.712Z,99.99
2018-02-10T10:10:55.702Z,99.99
2018-02-10T10:11:55.690Z,99.99
2018-02-10T10:12:55.679Z,99.99
2018-02-10T10:13:55.669Z,99.99
2018-02-10T10:14:55.655Z,99.99
2018-02-10T10:15:55.644Z,99.99
2018-02-10T10:16:55.633Z,99.99
2018-02-10T10:17:55.627Z,99.99
2018-02-10T10:18:55.614Z,99.99
2018-02-10T10:19:55.602Z,99.99
2018-02-10T10:20:55.591Z,99.99
2018-02-10T10:21:55.581Z,99.99
2018-02-10T10:22:55.577Z,99.99
2018-02-10T10:23:55.567Z,99.99
2018-02-10T10:24:55.555Z,99.99
2018-02-10T10:25:55.545Z,99.99
2018-02-10T10:26:55.531Z,99.99
2018-02-10T10:27:55.524Z,99.99
2018-02-10T10:28:55.510Z,99.99
2018-02-10T10:29:55.500Z,99.99
2018-02-10T10:30:55.495Z,99.99
2018-02-10T10:31:55.484Z,99.99
2018-02-10T10:32:55.474Z,99.99
2018-02-10T10:33:55.464Z,99.99
2018-02-10T10:34:55.455Z,99.99
2018-02-10T10:35:55.445Z,99.99
2018-02-10T10:36:55.434Z,99.99
2018-02-10T10:37:55.427Z,99.99
2018-02-10T10:38:55.410Z,99.99
2018-02-10T10:39:55.436Z,99.99
2018-02-10T10:40:55.390Z,99.99
2018-02-10T10:41:55.380Z,99.99
2018-02-10T10:42:55.379Z,99.99
2018-02-10T10:43:55.361Z,99.99
2018-02-10T10:44:55.349Z,99.99
2018-02-10T10:45:55.340Z,99.99
2018-02-10T10:46:55.334Z,99.99
2018-02-10T10:47:55.325Z,99.99
2018-02-10T10:48:55.314Z,99.99
2018-02-10T10:49:55.314Z,99.99
2018-02-10T10:50:55.294Z,99.99
2018-02-10T10:51:55.285Z,99.99
2018-02-10T10:52:55.273Z,99.99
2018-02-10T10:53:55.264Z,99.99
2018-02-10T10:54:55.251Z,99.99
2018-02-10T10:55:55.240Z,99.99
2018-02-10T10:56:55.230Z,99.99
2018-02-10T10:57:55.221Z,99.99
2018-02-10T10:58:55.211Z,99.99
2018-02-10T10:59:55.204Z,99.99
2018-02-10T11:00:55.193Z,99.99
2018-02-10T11:01:55.181Z,99.99
2018-02-10T11:02:55.179Z,99.99
2018-02-10T11:03:55.166Z,99.99
2018-02-10T11:04:55.155Z,99.99
2018-02-10T11:05:55.146Z,99.99
2018-02-10T11:06:55.136Z,99.99
2018-02-10T11:07:55.128Z,99.99
2018-02-10T11:08:55.115Z,99.99
2018-02-10T11:09:55.105Z,99.99
2018-02-10T11:10:55.091Z,99.99
2018-02-10T11:11:55.081Z,99.99
2018-02-10T11:12:55.071Z,99.99
2018-02-10T11:13:55.060Z,99.99
2018-02-10T11:14:55.051Z,99.99
2018-02-10T11:15:55.042Z,99.99
2018-02-10T11:16:55.032Z,99.99
2018-02-10T11:17:55.022Z,99.99
2018-02-10T11:18:55.019Z,99.99
2018-02-10T11:19:55.006Z,99.99
2018-02-10T11:20:54.995Z,99.99
2018-02-10T11:21:54.986Z,99.99
2018-02-10T11:22:54.976Z,99.99
2018-02-10T11:23:54.965Z,99.99
2018-02-10T11:24:54.955Z,99.99
2018-02-10T11:25:54.948Z,99.99
2018-02-10T11:26:54.933Z,99.99
2018-02-10T11:27:54.922Z,99.99
2018-02-10T11:28:54.912Z,99.99
2018-02-10T11:29:54.902Z,99.99
2018-02-10T11:30:54.898Z,99.99
2018-02-10T11:31:54.887Z,99.99
2018-02-10T11:32:54.876Z,99.99
2018-02-10T11:33:54.866Z,99.99
2018-02-10T11:34:54.853Z,99.99
2018-02-10T11:35:54.843Z,99.99
2018-02-10T11:36:54.833Z,99.99
2018-02-10T11:37:54.822Z,99.99
2018-02-10T11:38:54.814Z,99.99
2018-02-10T11:39:54.803Z,99.99
2018-02-10T11:40:54.792Z,99.99
2018-02-10T11:41:54.785Z,99.99
2018-02-10T11:42:54.778Z,99.99
2018-02-10T11:43:54.769Z,99.99
2018-02-10T11:44:54.758Z,99.99
2018-02-10T11:45:54.749Z,99.99
2018-02-10T11:46:54.739Z,99.99
2018-02-10T11:47:54.730Z,99.99
2018-02-10T11:48:54.719Z,99.99
2018-02-10T11:49:54.710Z,99.99
2018-02-10T11:50:54.696Z,99.99
2018-02-10T11:51:54.687Z,99.99
2018-02-10T11:52:54.676Z,99.99
2018-02-10T11:53:54.667Z,99.99
2018-02-10T11:54:54.657Z,99.99
2018-02-10T11:55:54.686Z,99.99
2018-02-10T11:56:54.672Z,99.99
2018-02-10T11:57:54.628Z,99.99
2018-02-10T11:58:54.622Z,99.99
2018-02-10T11:59:54.613Z,99.99
2018-02-10T12:00:54.603Z,99.99
2018-02-10T12:01:54.591Z,99.99
2018-02-10T12:02:54.582Z,99.99
2018-02-10T12:03:54.573Z,99.99
2018-02-10T12:04:54.563Z,99.99
2018-02-10T12:05:54.553Z,99.99
2018-02-10T12:06:54.540Z,99.99
2018-02-10T12:07:54.530Z,99.99
2018-02-10T12:08:54.519Z,99.99
2018-02-10T12:09:54.511Z,99.99
2018-02-10T12:10:54.501Z,99.99
2018-02-10T12:11:54.490Z,99.99
2018-02-10T12:12:54.479Z,99.99
2018-02-10T12:13:54.470Z,99.99
2018-02-10T12:14:54.465Z,99.99
2018-02-10T12:15:54.455Z,99.99
2018-02-10T12:16:54.449Z,99.99
2018-02-10T12:17:54.435Z,99.99
2018-02-10T12:18:54.426Z,99.99
2018-02-10T12:19:54.416Z,99.99
2018-02-10T12:20:54.405Z,99.99
2018-02-10T12:21:54.396Z,99.99
2018-02-10T12:22:54.382Z,99.99
2018-02-10T12:23:54.371Z,99.99
2018-02-10T12:24:54.362Z,99.99
2018-02-10T12:25:54.353Z,99.99
2018-02-10T12:26:54.343Z,99.99
2018-02-10T12:27:54.334Z,99.99
2018-02-10T12:28:54.323Z,99.99
2018-02-10T12:29:54.313Z,99.99
2018-02-10T12:30:54.308Z,99.99
2018-02-10T12:31:54.298Z,99.99
2018-02-10T12:32:54.287Z,99.99
2018-02-10T12:33:54.277Z,99.99
2018-02-10T12:34:54.264Z,99.99
2018-02-10T12:35:54.254Z,99.99
2018-02-10T12:36:54.242Z,99.99
2018-02-10T12:37:54.233Z,99.99
2018-02-10T12:38:54.227Z,99.99
2018-02-10T12:39:54.218Z,99.99
2018-02-10T12:40:54.210Z,99.99
2018-02-10T12:41:54.202Z,99.99
2018-02-10T12:42:54.187Z,99.99
2018-02-10T12:43:54.177Z,99.99
2018-02-10T12:44:54.166Z,99.99
2018-02-10T12:45:54.208Z,99.99
2018-02-10T12:46:54.142Z,99.99
2018-02-10T12:47:54.132Z,99.99
2018-02-10T12:48:54.121Z,99.99
2018-02-10T12:49:54.111Z,99.99
2018-02-10T12:50:54.101Z,99.99
2018-02-10T12:51:54.090Z,99.99